Time;durP1;ratioP1;P1;durP2;ratioP2;P2;SDS_P1;SDS_P2;PMS_P1;PMS_P2;Temp;Humidity;BMP_temperature;BMP_pressure;BME280_temperature;BME280_humidity;BME280_pressure;Samples;Min_cycle;Max_cycle;Signal;HPM_P1;HPM_P2
2023/08/29 00:00:21;;;;;;;4.10;3.38;;;13.90;99.90;;;;;;5113261;28;20406;-59
2023/08/29 00:02:48;;;;;;;6.68;4.30;;;13.80;99.90;;;;;;5079166;28;20039;-59
2023/08/29 00:05:14;;;;;;;3.95;3.28;;;13.80;99.90;;;;;;5105227;28;20046;-58
2023/08/29 00:07:42;;;;;;;5.72;4.43;;;13.80;99.90;;;;;;5131800;27;20123;-57
2023/08/29 00:10:08;;;;;;;4.82;3.97;;;13.80;99.90;;;;;;5136974;27;20148;-57
2023/08/29 00:12:34;;;;;;;4.32;3.67;;;13.80;99.90;;;;;;5117457;28;20491;-58
2023/08/29 00:15:00;;;;;;;6.97;5.68;;;13.80;99.90;;;;;;5112009;28;20074;-58
2023/08/29 00:17:26;;;;;;;5.28;4.38;;;13.80;99.90;;;;;;5100840;28;20032;-56
2023/08/29 00:19:55;;;;;;;9.10;5.28;;;13.70;99.90;;;;;;5101135;28;20051;-58
2023/08/29 00:22:21;;;;;;;6.15;4.40;;;13.80;99.90;;;;;;5095727;28;20123;-59
2023/08/29 00:24:52;;;;;;;8.15;4.72;;;13.80;99.90;;;;;;5096816;28;20594;-57
2023/08/29 00:27:21;;;;;;;7.35;5.10;;;13.80;99.90;;;;;;5095151;28;20039;-58
2023/08/29 00:29:47;;;;;;;6.07;4.78;;;13.80;99.90;;;;;;5132964;27;20101;-59
2023/08/29 00:32:13;;;;;;;5.70;5.07;;;13.70;99.90;;;;;;5091956;28;20044;-59
2023/08/29 00:34:38;;;;;;;6.95;5.05;;;13.80;99.90;;;;;;5125803;27;20109;-59
2023/08/29 00:37:04;;;;;;;8.95;5.38;;;13.80;99.90;;;;;;5098522;28;20040;-57
2023/08/29 00:39:30;;;;;;;7.93;5.13;;;13.80;99.90;;;;;;5105572;27;20461;-59
2023/08/29 00:41:56;;;;;;;9.48;5.13;;;13.80;99.90;;;;;;5067040;28;20035;-59
2023/08/29 00:44:22;;;;;;;7.70;5.47;;;13.70;99.90;;;;;;5097220;28;20061;-59
2023/08/29 00:46:47;;;;;;;7.43;5.28;;;13.70;99.90;;;;;;5096904;27;20495;-59
2023/08/29 00:49:18;;;;;;;9.25;5.03;;;13.70;99.90;;;;;;5100578;27;20039;-59
2023/08/29 00:51:45;;;;;;;7.85;5.32;;;13.80;99.90;;;;;;5105119;27;20079;-58
2023/08/29 00:54:13;;;;;;;6.30;5.03;;;13.70;99.90;;;;;;5095676;27;20078;-58
2023/08/29 00:56:39;;;;;;;7.07;4.75;;;13.70;99.90;;;;;;5098964;27;20498;-59
2023/08/29 00:59:05;;;;;;;5.47;4.43;;;13.70;99.90;;;;;;5133612;27;20062;-59
2023/08/29 01:01:33;;;;;;;5.90;4.32;;;13.60;99.90;;;;;;5087158;28;20674;-57
2023/08/29 01:03:59;;;;;;;5.80;4.63;;;13.60;99.90;;;;;;5084278;28;20041;-59
2023/08/29 01:06:25;;;;;;;4.43;3.65;;;13.60;99.90;;;;;;5079415;28;20050;-59
2023/08/29 01:08:52;;;;;;;6.25;4.15;;;13.60;99.90;;;;;;5096233;27;20125;-59
2023/08/29 01:11:29;;;;;;;3.70;3.20;;;13.60;99.90;;;;;;5106085;27;20032;-59
2023/08/29 01:14:04;;;;;;;6.47;4.50;;;13.60;99.90;;;;;;5098437;27;20109;-59
2023/08/29 01:16:38;;;;;;;4.78;3.20;;;13.50;99.90;;;;;;5105603;27;20047;-59
2023/08/29 01:19:13;;;;;;;5.88;3.95;;;13.40;99.90;;;;;;5100169;27;20039;-59
2023/08/29 01:21:47;;;;;;;7.13;4.35;;;13.40;99.90;;;;;;5087624;28;20040;-58
2023/08/29 01:24:22;;;;;;;;;;;13.30;99.90;;;;;;5096253;27;20036;-56
2023/08/29 01:26:48;;;;;;;5.32;3.72;;;13.30;99.90;;;;;;5097964;27;20190;-58
2023/08/29 01:29:15;;;;;;;4.47;3.58;;;13.30;99.90;;;;;;5106199;27;20035;-57
2023/08/29 01:31:41;;;;;;;6.13;4.43;;;13.30;99.90;;;;;;5083024;28;20050;-56
2023/08/29 01:34:08;;;;;;;5.95;4.53;;;13.30;99.90;;;;;;5126937;27;20075;-59
2023/08/29 01:36:43;;;;;;;9.45;4.72;;;13.30;99.90;;;;;;5098918;27;20085;-56
2023/08/29 01:39:09;;;;;;;5.75;4.32;;;13.30;99.90;;;;;;5113049;27;20048;-59
2023/08/29 01:41:35;;;;;;;6.07;4.57;;;13.30;99.90;;;;;;5096187;28;20040;-58
2023/08/29 01:44:05;;;;;;;6.05;4.55;;;13.30;99.90;;;;;;5081955;28;20042;-57
2023/08/29 01:46:31;;;;;;;5.90;4.03;;;13.30;99.90;;;;;;5101335;27;20131;-58
2023/08/29 01:48:58;;;;;;;5.57;4.35;;;13.30;99.90;;;;;;5098882;28;20064;-58
2023/08/29 01:51:25;;;;;;;3.88;3.22;;;13.20;99.90;;;;;;5107761;27;20415;-58
2023/08/29 01:53:51;;;;;;;5.90;4.13;;;13.20;99.90;;;;;;5130999;27;20047;-58
2023/08/29 01:56:19;;;;;;;5.05;4.13;;;13.30;99.90;;;;;;5086667;27;20047;-55
2023/08/29 01:58:47;;;;;;;4.40;3.22;;;13.20;99.90;;;;;;5123558;27;20060;-57
2023/08/29 02:01:13;;;;;;;5.05;3.72;;;13.20;99.90;;;;;;5094871;27;20039;-58
2023/08/29 02:03:40;;;;;;;7.22;4.28;;;13.20;99.90;;;;;;5099999;27;20134;-57
2023/08/29 02:06:06;;;;;;;6.13;3.03;;;13.20;99.90;;;;;;5096799;28;20172;-59
2023/08/29 02:08:32;;;;;;;4.28;3.30;;;13.10;99.90;;;;;;5112132;27;20499;-58
2023/08/29 02:10:57;;;;;;;4.30;3.78;;;13.10;99.90;;;;;;5099779;27;20040;-58
2023/08/29 02:13:23;;;;;;;4.95;3.10;;;13.00;99.90;;;;;;5085286;28;20502;-58
2023/08/29 02:15:49;;;;;;;5.30;3.60;;;13.00;99.90;;;;;;5084950;28;20043;-58
2023/08/29 02:18:15;;;;;;;4.53;3.50;;;13.00;99.90;;;;;;5087574;27;20130;-56
2023/08/29 02:20:40;;;;;;;4.47;3.75;;;13.00;99.90;;;;;;5132511;27;20035;-56
2023/08/29 02:23:06;;;;;;;3.90;3.10;;;13.00;99.90;;;;;;5096719;27;20111;-55
2023/08/29 02:25:32;;;;;;;4.18;3.28;;;13.00;99.90;;;;;;5097324;27;20051;-58
2023/08/29 02:27:58;;;;;;;3.83;3.10;;;13.00;99.90;;;;;;5082439;28;20036;-58
2023/08/29 02:30:23;;;;;;;6.00;3.55;;;13.00;99.90;;;;;;5127162;27;20044;-56
2023/08/29 02:32:49;;;;;;;4.10;3.45;;;13.00;99.90;;;;;;5095023;28;20047;-56
2023/08/29 02:35:15;;;;;;;7.20;3.60;;;13.00;99.90;;;;;;5084644;28;20065;-56
2023/08/29 02:37:41;;;;;;;5.22;3.47;;;12.90;99.90;;;;;;5101403;27;20058;-57
2023/08/29 02:40:08;;;;;;;3.85;3.30;;;12.90;99.90;;;;;;5125174;27;20066;-56
2023/08/29 02:42:34;;;;;;;4.53;3.60;;;12.80;99.90;;;;;;5130721;27;20047;-53
2023/08/29 02:45:00;;;;;;;3.92;3.20;;;12.80;99.90;;;;;;5096028;27;20380;-57
2023/08/29 02:47:26;;;;;;;4.78;3.75;;;12.70;99.90;;;;;;5090834;28;20135;-57
2023/08/29 02:49:52;;;;;;;3.67;3.00;;;12.70;99.90;;;;;;5098280;28;20046;-53
2023/08/29 02:52:18;;;;;;;3.92;3.05;;;12.60;99.90;;;;;;5098124;27;20090;-56
2023/08/29 02:54:44;;;;;;;4.85;2.95;;;12.60;99.90;;;;;;5126544;27;20052;-56
2023/08/29 02:57:10;;;;;;;4.75;2.97;;;12.60;99.90;;;;;;5130234;27;20038;-58
2023/08/29 02:59:35;;;;;;;5.38;3.13;;;12.60;99.90;;;;;;5077324;28;20131;-55
2023/08/29 03:02:03;;;;;;;4.53;3.65;;;12.60;99.90;;;;;;5094395;28;20028;-56
2023/08/29 03:04:30;;;;;;;6.10;3.55;;;12.50;99.90;;;;;;5134115;27;20307;-58
2023/08/29 03:06:56;;;;;;;4.63;2.80;;;12.50;99.90;;;;;;5104343;27;20466;-57
2023/08/29 03:09:21;;;;;;;3.67;3.20;;;12.50;99.90;;;;;;5081441;28;20044;-57
2023/08/29 03:11:47;;;;;;;4.97;3.20;;;12.50;99.90;;;;;;5097880;27;20113;-56
2023/08/29 03:14:14;;;;;;;5.22;3.25;;;12.50;99.90;;;;;;5080069;28;20032;-57
2023/08/29 03:16:40;;;;;;;7.35;4.15;;;12.50;99.90;;;;;;5102658;27;20039;-55
2023/08/29 03:19:05;;;;;;;3.60;2.90;;;12.50;99.90;;;;;;5099525;27;20035;-57
2023/08/29 03:21:31;;;;;;;5.07;2.83;;;12.40;99.90;;;;;;5099367;27;20039;-56
2023/08/29 03:23:57;;;;;;;5.22;2.90;;;12.40;99.90;;;;;;5101256;27;20031;-57
2023/08/29 03:26:23;;;;;;;4.70;3.45;;;12.40;99.90;;;;;;5124732;27;20044;-57
2023/08/29 03:28:48;;;;;;;4.13;3.55;;;12.30;99.90;;;;;;5093833;27;20043;-57
2023/08/29 03:31:16;;;;;;;5.65;3.40;;;12.30;99.90;;;;;;5080840;28;20044;-57
2023/08/29 03:33:43;;;;;;;4.95;3.58;;;12.30;99.90;;;;;;5129261;27;20478;-57
2023/08/29 03:36:09;;;;;;;4.90;3.25;;;12.30;99.90;;;;;;5058159;28;20084;-56
2023/08/29 03:38:37;;;;;;;5.43;4.00;;;12.20;99.90;;;;;;5133786;27;20044;-58
2023/08/29 03:41:03;;;;;;;3.97;3.45;;;12.20;99.90;;;;;;5094470;27;20319;-57
2023/08/29 03:43:31;;;;;;;4.95;3.97;;;12.20;99.90;;;;;;5098832;27;20046;-56
2023/08/29 03:46:05;;;;;;;5.20;3.85;;;12.20;99.90;;;;;;5096347;28;20070;-57
2023/08/29 03:48:31;;;;;;;5.80;3.60;;;12.10;99.90;;;;;;5096971;27;20035;-56
2023/08/29 03:51:06;;;;;;;4.35;3.25;;;12.10;99.90;;;;;;5107480;27;20043;-57
2023/08/29 03:53:36;;;;;;;4.30;3.45;;;12.10;99.90;;;;;;5128739;27;20628;-57
2023/08/29 03:56:03;;;;;;;4.78;3.13;;;12.10;99.90;;;;;;5097532;28;20071;-58
2023/08/29 03:58:29;;;;;;;4.97;3.63;;;12.00;99.90;;;;;;5080294;28;20032;-57
2023/08/29 04:00:56;;;;;;;4.78;2.80;;;12.10;99.90;;;;;;5100822;28;20501;-56
2023/08/29 04:03:22;;;;;;;3.85;3.08;;;12.00;99.90;;;;;;5128518;27;20828;-56
2023/08/29 04:05:48;;;;;;;4.32;3.10;;;12.00;99.90;;;;;;5098469;28;20092;-56
2023/08/29 04:08:13;;;;;;;4.68;3.05;;;12.10;99.90;;;;;;5101064;28;20035;-57
2023/08/29 04:10:40;;;;;;;4.57;2.50;;;12.00;99.90;;;;;;5106405;28;20579;-57
2023/08/29 04:13:07;;;;;;;3.20;2.08;;;12.10;99.90;;;;;;5111414;27;20417;-56
2023/08/29 04:15:34;;;;;;;4.43;2.80;;;12.10;99.90;;;;;;5088478;28;20047;-56
2023/08/29 04:18:00;;;;;;;6.35;3.10;;;12.00;99.90;;;;;;5103396;27;20043;-57
2023/08/29 04:20:27;;;;;;;3.42;2.80;;;12.00;99.90;;;;;;5127519;27;20177;-57
2023/08/29 04:22:53;;;;;;;4.40;2.72;;;12.00;99.90;;;;;;5097307;27;20486;-57
2023/08/29 04:25:19;;;;;;;4.00;2.65;;;12.00;99.90;;;;;;5130155;27;20089;-57
2023/08/29 04:27:46;;;;;;;4.00;2.70;;;12.00;99.90;;;;;;5102221;27;20740;-57
2023/08/29 04:30:12;;;;;;;4.00;2.42;;;12.00;99.90;;;;;;5080587;28;20105;-57
2023/08/29 04:32:38;;;;;;;3.55;2.70;;;12.00;99.90;;;;;;5086592;27;20044;-57
2023/08/29 04:35:08;;;;;;;6.07;2.80;;;12.10;99.90;;;;;;5100369;28;20058;-57
2023/08/29 04:37:35;;;;;;;4.03;3.00;;;12.00;99.90;;;;;;5104333;27;20052;-56
2023/08/29 04:40:01;;;;;;;3.92;2.85;;;12.00;99.90;;;;;;5097827;27;20786;-58
2023/08/29 04:42:27;;;;;;;3.53;2.60;;;12.10;99.90;;;;;;5112569;27;20028;-57
2023/08/29 04:44:54;;;;;;;3.40;2.35;;;12.00;99.90;;;;;;5115420;27;20570;-55
2023/08/29 04:47:22;;;;;;;4.85;2.60;;;12.00;99.90;;;;;;5099948;27;20039;-57
2023/08/29 04:49:48;;;;;;;3.17;2.42;;;12.00;99.90;;;;;;5096812;27;20134;-57
2023/08/29 04:52:14;;;;;;;3.47;2.50;;;12.00;99.90;;;;;;5135166;27;20467;-58
2023/08/29 04:54:40;;;;;;;3.72;2.55;;;12.00;99.90;;;;;;5117424;27;20035;-56
2023/08/29 04:57:05;;;;;;;4.53;2.60;;;12.00;99.90;;;;;;5092890;27;20058;-58
2023/08/29 04:59:31;;;;;;;4.32;2.63;;;12.10;99.90;;;;;;5103467;27;20460;-57
2023/08/29 05:01:57;;;;;;;5.05;3.20;;;12.10;99.90;;;;;;5115367;27;20066;-58
2023/08/29 05:04:22;;;;;;;4.82;3.25;;;12.10;99.90;;;;;;5128883;27;20071;-56
2023/08/29 05:06:48;;;;;;;4.80;2.85;;;12.10;99.90;;;;;;5139039;27;20494;-58
2023/08/29 05:09:14;;;;;;;3.83;3.08;;;12.20;99.90;;;;;;5096976;27;20439;-58
2023/08/29 05:11:40;;;;;;;4.18;3.08;;;12.20;99.90;;;;;;5100782;27;20090;-57
2023/08/29 05:14:06;;;;;;;4.18;2.78;;;12.20;99.90;;;;;;5132363;27;20040;-58
2023/08/29 05:16:32;;;;;;;6.03;3.00;;;12.20;99.90;;;;;;5110878;27;20122;-57
2023/08/29 05:18:59;;;;;;;3.97;3.03;;;12.30;99.90;;;;;;5088436;27;20049;-58
2023/08/29 05:21:25;;;;;;;4.72;2.85;;;12.30;99.90;;;;;;5101969;27;20032;-56
2023/08/29 05:23:50;;;;;;;5.13;3.20;;;12.30;99.90;;;;;;5130867;27;20061;-57
2023/08/29 05:26:16;;;;;;;4.15;2.53;;;12.40;99.90;;;;;;5102528;27;20487;-55
2023/08/29 05:28:42;;;;;;;3.83;2.20;;;12.40;99.90;;;;;;5102159;27;20072;-57
2023/08/29 05:31:08;;;;;;;6.57;2.70;;;12.40;99.90;;;;;;5085698;28;20044;-57
2023/08/29 05:33:34;;;;;;;3.15;2.50;;;12.40;99.90;;;;;;5102677;27;20186;-57
2023/08/29 05:36:00;;;;;;;3.58;2.65;;;12.40;99.90;;;;;;5103032;27;20152;-57
2023/08/29 05:38:27;;;;;;;6.13;2.90;;;12.50;99.90;;;;;;5135183;27;20051;-53
2023/08/29 05:40:53;;;;;;;6.90;2.70;;;12.50;99.90;;;;;;5100589;27;20058;-57
2023/08/29 05:43:19;;;;;;;5.60;2.45;;;12.60;99.90;;;;;;5100449;27;20487;-55
2023/08/29 05:45:45;;;;;;;3.20;2.40;;;12.60;99.90;;;;;;5077982;28;20071;-55
2023/08/29 05:48:10;;;;;;;3.15;2.38;;;12.70;99.90;;;;;;5133254;27;20058;-57
2023/08/29 05:50:40;;;;;;;4.70;2.50;;;12.80;99.90;;;;;;5100231;27;20048;-57
2023/08/29 05:53:06;;;;;;;3.63;2.80;;;12.90;99.90;;;;;;5093309;27;20503;-57
2023/08/29 05:55:32;;;;;;;4.30;2.80;;;13.00;99.90;;;;;;5117038;27;20535;-56
2023/08/29 05:57:59;;;;;;;4.78;3.08;;;13.00;99.90;;;;;;5105192;28;20059;-57
2023/08/29 06:00:25;;;;;;;4.35;2.85;;;13.10;99.90;;;;;;5080364;28;20086;-58
2023/08/29 06:02:52;;;;;;;4.80;2.88;;;13.20;99.90;;;;;;5097231;27;20048;-58
2023/08/29 06:05:18;;;;;;;3.63;2.50;;;13.30;99.90;;;;;;5129570;27;20442;-55
2023/08/29 06:07:46;;;;;;;3.72;2.17;;;13.40;99.90;;;;;;5130639;27;20048;-56
2023/08/29 06:10:12;;;;;;;4.18;2.60;;;13.50;99.90;;;;;;5084868;28;20052;-56
2023/08/29 06:12:38;;;;;;;4.85;2.42;;;13.60;99.90;;;;;;5100956;28;20487;-56
2023/08/29 06:15:05;;;;;;;3.33;2.20;;;13.70;99.90;;;;;;5101526;27;20547;-57
2023/08/29 06:17:30;;;;;;;3.10;2.28;;;13.80;99.90;;;;;;5092610;28;20112;-57
2023/08/29 06:19:56;;;;;;;3.47;3.00;;;13.90;99.90;;;;;;5101295;27;20469;-57
2023/08/29 06:22:22;;;;;;;4.65;2.78;;;13.90;99.90;;;;;;5088427;28;20043;-57
2023/08/29 06:24:48;;;;;;;4.13;2.60;;;14.10;99.90;;;;;;5126396;27;20032;-58
2023/08/29 06:27:14;;;;;;;4.53;3.05;;;14.20;99.90;;;;;;5082594;28;20375;-56
2023/08/29 06:29:39;;;;;;;3.35;2.42;;;14.30;99.90;;;;;;5097068;27;20470;-57
2023/08/29 06:32:05;;;;;;;5.05;3.15;;;14.40;99.90;;;;;;5095171;28;20390;-56
2023/08/29 06:34:31;;;;;;;6.25;3.05;;;14.60;99.90;;;;;;5100408;27;20046;-57
2023/08/29 06:36:57;;;;;;;4.60;2.63;;;14.60;99.90;;;;;;5127209;27;20609;-58
2023/08/29 06:39:22;;;;;;;4.15;2.63;;;14.70;99.90;;;;;;5130989;27;20043;-58
2023/08/29 06:41:48;;;;;;;2.83;2.53;;;14.80;99.90;;;;;;5094498;27;20090;-58
2023/08/29 06:44:14;;;;;;;4.25;2.95;;;14.90;99.90;;;;;;5096992;27;20027;-58
2023/08/29 06:46:40;;;;;;;4.50;3.03;;;15.00;99.90;;;;;;5093796;28;20035;-56
2023/08/29 06:49:07;;;;;;;3.78;2.88;;;14.90;99.90;;;;;;5102444;27;20031;-57
2023/08/29 06:51:33;;;;;;;4.75;2.80;;;15.10;99.90;;;;;;5085397;28;20078;-56
2023/08/29 06:54:03;;;;;;;4.18;3.13;;;15.20;99.90;;;;;;5092330;27;20040;-57
2023/08/29 06:56:29;;;;;;;4.55;3.00;;;15.30;99.90;;;;;;5079221;28;20394;-57
2023/08/29 06:58:54;;;;;;;3.92;2.67;;;15.30;99.90;;;;;;5099011;27;20036;-58
2023/08/29 07:01:20;;;;;;;5.20;2.78;;;15.40;99.90;;;;;;5092221;27;20047;-58
2023/08/29 07:03:46;;;;;;;3.97;2.97;;;15.40;99.90;;;;;;5129412;27;20127;-56
2023/08/29 07:06:11;;;;;;;3.03;2.45;;;15.50;99.90;;;;;;5102850;27;20110;-58
2023/08/29 07:08:37;;;;;;;3.60;2.92;;;15.60;99.90;;;;;;5096409;27;20506;-58
2023/08/29 07:11:04;;;;;;;4.95;2.75;;;15.60;99.90;;;;;;5094855;27;20036;-57
2023/08/29 07:13:29;;;;;;;4.50;2.72;;;15.70;99.90;;;;;;5097663;28;20321;-58
2023/08/29 07:15:55;;;;;;;4.50;2.92;;;15.80;99.90;;;;;;5108257;27;20031;-56
2023/08/29 07:18:21;;;;;;;3.53;2.35;;;15.90;99.90;;;;;;5072808;28;20044;-57
2023/08/29 07:20:50;;;;;;;2.60;2.17;;;15.90;99.90;;;;;;5078621;28;20113;-57
2023/08/29 07:23:16;;;;;;;4.63;2.85;;;16.00;99.90;;;;;;5122269;27;20123;-58
2023/08/29 07:25:44;;;;;;;4.75;3.00;;;16.20;99.90;;;;;;5098927;27;20469;-57
2023/08/29 07:28:13;;;;;;;3.70;2.55;;;16.30;99.90;;;;;;5124411;27;20589;-56
2023/08/29 07:30:51;;;;;;;4.30;2.00;;;16.30;99.90;;;;;;5066241;28;20047;-58
2023/08/29 07:33:18;;;;;;;4.38;2.22;;;16.40;99.90;;;;;;5125884;27;20039;-59
2023/08/29 07:35:45;;;;;;;3.70;2.00;;;16.50;99.90;;;;;;5068682;28;20112;-56
2023/08/29 07:38:12;;;;;;;3.28;1.83;;;16.60;99.90;;;;;;5126079;27;20124;-56
2023/08/29 07:40:38;;;;;;;2.38;1.80;;;16.60;99.90;;;;;;5101261;28;20533;-56
2023/08/29 07:43:08;;;;;;;4.20;2.00;;;16.70;99.90;;;;;;5106296;27;20040;-55
2023/08/29 07:45:34;;;;;;;2.83;2.20;;;16.80;99.90;;;;;;5104369;27;20092;-58
2023/08/29 07:48:02;;;;;;;2.97;2.00;;;16.80;99.90;;;;;;5097665;27;20482;-59
2023/08/29 07:50:28;;;;;;;5.25;2.22;;;16.90;99.90;;;;;;5106059;27;20035;-56
2023/08/29 07:52:54;;;;;;;5.07;1.92;;;17.00;99.90;;;;;;5084860;28;20478;-59
2023/08/29 07:55:20;;;;;;;3.50;2.15;;;17.10;99.90;;;;;;5090144;28;20046;-55
2023/08/29 07:57:47;;;;;;;2.13;1.77;;;17.10;99.90;;;;;;5126211;27;20047;-58
2023/08/29 08:00:16;;;;;;;4.22;1.88;;;17.20;99.90;;;;;;5097966;28;20048;-59
2023/08/29 08:02:42;;;;;;;2.35;1.45;;;17.20;99.90;;;;;;5127071;27;20035;-55
2023/08/29 08:05:13;;;;;;;2.70;1.70;;;17.30;99.90;;;;;;5109586;28;20690;-59
2023/08/29 08:07:40;;;;;;;2.88;1.40;;;17.30;99.90;;;;;;5132685;27;20047;-57
2023/08/29 08:10:07;;;;;;;3.90;1.95;;;17.30;99.90;;;;;;5105926;28;20119;-59
2023/08/29 08:12:34;;;;;;;1.27;1.10;;;17.30;99.90;;;;;;5085493;28;20714;-59
2023/08/29 08:15:00;;;;;;;4.60;1.70;;;17.30;99.90;;;;;;5094472;28;20127;-59
2023/08/29 08:17:25;;;;;;;3.40;1.42;;;17.40;99.90;;;;;;5129361;27;20047;-57
2023/08/29 08:19:51;;;;;;;4.47;1.42;;;17.40;99.90;;;;;;5131837;27;20201;-56
2023/08/29 08:22:31;;;;;;;2.80;1.58;;;17.40;99.90;;;;;;5106612;28;20425;-53
2023/08/29 08:24:56;;;;;;;1.92;1.42;;;17.50;99.90;;;;;;5104348;28;20105;-60
2023/08/29 08:27:22;;;;;;;1.98;1.40;;;17.50;99.90;;;;;;5128534;27;20778;-58
2023/08/29 08:29:48;;;;;;;2.05;1.40;;;17.60;99.90;;;;;;5108733;28;20039;-57
2023/08/29 08:32:14;;;;;;;3.25;1.58;;;17.70;99.90;;;;;;5097301;28;20039;-56
2023/08/29 08:34:39;;;;;;;1.70;1.20;;;17.70;99.90;;;;;;5078965;28;20055;-55
2023/08/29 08:37:05;;;;;;;3.70;2.13;;;17.80;99.90;;;;;;5099987;28;20048;-58
2023/08/29 08:39:33;;;;;;;4.28;1.92;;;17.80;99.90;;;;;;5087346;28;20533;-57
2023/08/29 08:42:02;;;;;;;2.78;2.40;;;17.80;99.90;;;;;;5073267;28;20692;-59
2023/08/29 08:44:32;;;;;;;2.92;2.17;;;17.80;99.90;;;;;;5095221;28;20048;-57
2023/08/29 08:46:59;;;;;;;4.13;2.83;;;17.90;99.90;;;;;;5124330;27;20100;-57
2023/08/29 08:49:26;;;;;;;4.03;2.53;;;17.90;99.90;;;;;;5105430;27;20047;-55
2023/08/29 08:51:52;;;;;;;4.68;2.30;;;18.00;99.90;;;;;;5101428;28;20079;-56
2023/08/29 08:54:18;;;;;;;3.88;2.08;;;18.10;99.90;;;;;;5121796;27;20050;-61
2023/08/29 08:56:44;;;;;;;4.63;2.72;;;18.20;99.90;;;;;;5096330;28;20059;-57
2023/08/29 08:59:10;;;;;;;2.88;2.53;;;18.30;99.90;;;;;;5127257;27;20047;-56
2023/08/29 09:01:37;;;;;;;4.70;2.80;;;18.30;99.90;;;;;;5114287;27;20105;-56
2023/08/29 09:04:03;;;;;;;4.35;2.65;;;18.40;99.90;;;;;;5113741;27;20036;-58
2023/08/29 09:06:30;;;;;;;2.58;2.05;;;18.40;99.90;;;;;;5106231;27;20031;-58
2023/08/29 09:08:57;;;;;;;2.00;1.50;;;18.50;99.90;;;;;;5131579;27;20035;-61
2023/08/29 09:11:22;;;;;;;2.58;1.92;;;18.50;99.90;;;;;;5128964;27;20230;-56
2023/08/29 09:13:49;;;;;;;3.58;1.83;;;18.60;99.90;;;;;;5095646;27;20417;-55
2023/08/29 09:16:16;;;;;;;2.53;2.10;;;18.70;99.90;;;;;;5135259;27;20047;-57
2023/08/29 09:18:49;;;;;;;3.97;2.10;;;18.70;99.90;;;;;;5127692;27;20452;-56
2023/08/29 09:21:22;;;;;;;4.55;2.28;;;18.80;99.90;;;;;;5098525;27;20075;-59
2023/08/29 09:23:47;;;;;;;4.32;2.22;;;18.70;99.90;;;;;;5128911;27;20058;-58
2023/08/29 09:26:13;;;;;;;4.47;2.80;;;18.80;99.90;;;;;;5099592;27;20040;-57
2023/08/29 09:28:40;;;;;;;3.28;1.92;;;18.80;99.90;;;;;;5107185;27;20039;-56
2023/08/29 09:31:10;;;;;;;4.80;2.00;;;18.90;99.90;;;;;;5084123;27;20154;-60
2023/08/29 09:33:38;;;;;;;3.65;2.15;;;18.90;99.90;;;;;;5092594;27;20047;-60
2023/08/29 09:36:07;;;;;;;2.05;1.50;;;18.80;99.90;;;;;;5067893;28;20036;-59
2023/08/29 09:38:34;;;;;;;2.63;1.60;;;18.70;99.90;;;;;;5127446;27;20116;-59
2023/08/29 09:41:00;;;;;;;3.80;2.25;;;18.80;99.90;;;;;;5124722;27;20505;-60
2023/08/29 09:43:29;;;;;;;2.50;1.88;;;18.80;99.90;;;;;;5094493;27;20031;-58
2023/08/29 09:45:56;;;;;;;3.92;2.30;;;18.80;99.90;;;;;;5095922;27;20090;-60
2023/08/29 09:48:22;;;;;;;2.35;1.95;;;18.80;99.90;;;;;;5097287;27;20039;-59
2023/08/29 09:50:50;;;;;;;4.15;1.73;;;18.80;99.90;;;;;;5093914;27;20517;-58
2023/08/29 09:53:18;;;;;;;2.65;1.90;;;19.00;99.90;;;;;;5078814;28;20063;-59
2023/08/29 09:55:54;;;;;;;3.42;2.30;;;19.00;99.90;;;;;;5125039;27;20395;-57
2023/08/29 09:58:22;;;;;;;2.65;2.03;;;19.00;99.90;;;;;;5100367;27;20091;-57
2023/08/29 10:00:51;;;;;;;3.75;1.92;;;19.10;99.90;;;;;;5098601;28;20116;-58
2023/08/29 10:03:17;;;;;;;2.78;1.92;;;19.10;99.90;;;;;;5097789;28;20035;-59
2023/08/29 10:05:44;;;;;;;3.95;2.38;;;19.10;99.90;;;;;;5123854;27;20503;-59
2023/08/29 10:08:55;;;;;;;4.03;2.55;;;19.10;99.90;;;;;;5098834;27;20085;-60
2023/08/29 10:11:22;;;;;;;2.35;1.63;;;19.10;99.90;;;;;;5044666;28;20040;-58
2023/08/29 10:13:49;;;;;;;2.53;1.90;;;19.20;99.90;;;;;;5029450;28;20052;-57
2023/08/29 10:16:15;;;;;;;3.25;1.65;;;19.30;99.90;;;;;;5097885;27;20048;-58
2023/08/29 10:18:43;;;;;;;2.55;1.83;;;19.30;99.90;;;;;;5073431;28;20043;-59
2023/08/29 10:21:11;;;;;;;2.92;1.80;;;19.30;99.90;;;;;;5096813;28;20035;-60
2023/08/29 10:23:38;;;;;;;2.30;1.67;;;19.30;99.90;;;;;;5112158;27;20058;-59
2023/08/29 10:26:06;;;;;;;3.35;1.77;;;19.30;99.90;;;;;;5098471;28;20124;-59
2023/08/29 10:28:32;;;;;;;2.65;1.63;;;19.40;99.90;;;;;;5098414;28;20437;-57
2023/08/29 10:31:04;;;;;;;2.55;1.80;;;19.50;99.90;;;;;;5101576;27;20411;-57
2023/08/29 10:33:31;;;;;;;3.15;2.00;;;19.60;99.90;;;;;;5075600;28;20032;-60
2023/08/29 10:35:57;;;;;;;2.30;1.90;;;19.60;99.90;;;;;;5102114;27;20110;-60
2023/08/29 10:38:26;;;;;;;2.35;1.63;;;19.60;99.90;;;;;;5126702;27;20093;-59
2023/08/29 10:41:06;;;;;;;4.07;2.33;;;19.70;99.90;;;;;;5093031;27;20413;-54
2023/08/29 10:43:32;;;;;;;3.53;2.38;;;19.90;99.90;;;;;;5123272;27;20048;-60
2023/08/29 10:46:12;;;;;;;3.35;1.90;;;19.90;99.90;;;;;;5125994;27;20350;-60
2023/08/29 10:48:43;;;;;;;4.60;2.45;;;20.00;99.90;;;;;;5093358;28;20074;-60
2023/08/29 10:51:22;;;;;;;2.72;1.85;;;20.10;99.90;;;;;;5095615;27;20395;-57
2023/08/29 10:54:05;;;;;;;3.03;1.75;;;20.30;99.90;;;;;;5095515;27;20043;-59
2023/08/29 10:56:42;;;;;;;3.10;1.80;;;20.40;99.90;;;;;;5099717;27;20100;-58
2023/08/29 10:59:27;;;;;;;2.25;1.65;;;20.50;99.90;;;;;;5128929;27;20046;-57
2023/08/29 11:02:26;;;;;;;4.22;1.95;;;20.50;99.90;;;;;;5098907;28;20135;-59
2023/08/29 11:05:14;;;;;;;3.15;1.77;;;20.50;99.90;;;;;;5086108;28;20535;-58
2023/08/29 11:07:40;;;;;;;3.05;2.30;;;20.60;99.90;;;;;;5097272;27;20082;-58
2023/08/29 11:13:28;;;;;;;3.25;2.15;;;20.80;99.90;;;;;;5126240;27;20446;-57
2023/08/29 11:15:54;;;;;;;4.35;1.88;;;21.00;99.90;;;;;;5076121;27;20181;-56
2023/08/29 11:18:23;;;;;;;3.78;2.67;;;20.90;99.90;;;;;;5081791;27;20492;-57
2023/08/29 11:20:51;;;;;;;3.25;2.50;;;20.80;99.90;;;;;;5076026;28;20039;-59
2023/08/29 11:23:19;;;;;;;3.67;2.78;;;20.80;99.90;;;;;;5096505;28;20396;-59
2023/08/29 11:25:50;;;;;;;4.50;2.15;;;20.80;99.90;;;;;;5093394;28;20491;-59
2023/08/29 11:28:16;;;;;;;3.50;2.10;;;20.90;99.90;;;;;;5095172;28;20058;-56
2023/08/29 11:30:46;;;;;;;2.60;2.03;;;21.00;99.90;;;;;;5100070;27;20065;-57
2023/08/29 11:33:12;;;;;;;5.30;2.35;;;21.00;99.90;;;;;;5076644;28;20092;-59
2023/08/29 11:35:38;;;;;;;2.50;1.77;;;21.20;99.90;;;;;;5093793;27;20403;-58
2023/08/29 11:38:07;;;;;;;2.97;1.80;;;21.30;99.90;;;;;;5100460;27;20054;-59
2023/08/29 11:40:33;;;;;;;2.63;1.85;;;21.50;99.90;;;;;;5112427;27;20137;-53
2023/08/29 11:42:59;;;;;;;3.60;1.98;;;21.60;99.90;;;;;;5123142;27;20051;-56
2023/08/29 11:45:26;;;;;;;2.75;1.90;;;21.70;99.90;;;;;;5090510;27;20039;-60
2023/08/29 11:47:52;;;;;;;2.40;1.40;;;21.70;99.80;;;;;;5107277;27;20446;-58
2023/08/29 11:50:17;;;;;;;2.88;1.60;;;21.70;99.00;;;;;;5135192;27;20045;-58
2023/08/29 11:52:43;;;;;;;1.88;1.60;;;21.80;99.20;;;;;;5111554;27;20042;-59
2023/08/29 11:55:11;;;;;;;2.30;1.48;;;21.80;99.40;;;;;;5094249;28;20142;-59
2023/08/29 11:57:39;;;;;;;4.47;2.17;;;21.90;99.50;;;;;;5096420;28;20133;-58
2023/08/29 12:00:08;;;;;;;2.58;1.67;;;22.00;99.10;;;;;;5077690;28;20035;-60
2023/08/29 12:02:33;;;;;;;2.95;1.80;;;22.00;99.10;;;;;;5129971;27;20622;-59
2023/08/29 12:04:59;;;;;;;1.58;1.30;;;22.20;99.20;;;;;;5081113;28;20044;-58
2023/08/29 12:07:31;;;;;;;2.38;1.80;;;22.40;99.20;;;;;;5134593;27;20036;-58
2023/08/29 12:10:14;;;;;;;3.00;2.08;;;22.60;99.10;;;;;;5102850;28;20043;-58
2023/08/29 12:12:40;;;;;;;4.20;2.15;;;22.60;99.00;;;;;;5110789;27;20063;-59
2023/08/29 12:15:11;;;;;;;2.88;2.25;;;22.50;99.00;;;;;;5133074;27;20055;-58
2023/08/29 12:17:43;;;;;;;4.00;2.42;;;22.40;99.10;;;;;;5096231;28;20447;-61
2023/08/29 12:20:12;;;;;;;3.23;1.70;;;22.20;98.80;;;;;;5127165;27;20043;-57
2023/08/29 12:22:39;;;;;;;2.83;2.00;;;22.00;99.30;;;;;;5132549;27;20490;-61
2023/08/29 12:25:05;;;;;;;2.63;1.60;;;22.00;99.80;;;;;;5126159;27;20059;-58
2023/08/29 12:27:31;;;;;;;2.50;2.00;;;22.00;99.60;;;;;;5101031;28;20047;-58
2023/08/29 12:29:57;;;;;;;3.25;2.38;;;21.90;99.20;;;;;;5099423;28;20157;-58
2023/08/29 12:32:27;;;;;;;3.13;2.00;;;21.70;98.60;;;;;;5101261;28;20550;-59
2023/08/29 12:34:54;;;;;;;4.38;2.10;;;21.40;98.60;;;;;;5103614;27;20058;-60
2023/08/29 12:37:20;;;;;;;2.70;1.88;;;21.20;98.50;;;;;;5131200;27;20035;-59
2023/08/29 12:39:46;;;;;;;1.98;1.58;;;21.20;99.20;;;;;;5076539;28;20372;-57
2023/08/29 12:42:12;;;;;;;2.92;2.10;;;21.20;99.30;;;;;;5100707;27;20109;-59
2023/08/29 12:44:38;;;;;;;3.10;2.28;;;21.10;99.30;;;;;;5108395;27;20467;-60
2023/08/29 12:47:07;;;;;;;3.25;2.10;;;21.10;99.50;;;;;;5133708;27;20055;-58
2023/08/29 12:49:33;;;;;;;3.03;1.88;;;21.10;99.50;;;;;;5106950;27;20445;-60
2023/08/29 12:51:59;;;;;;;3.53;2.10;;;21.20;99.40;;;;;;5098708;27;20031;-60